sensor_id;sensor_type;location;lat;lon;timestamp;P1;durP1;ratioP1;P2;durP2;ratioP2
77522;SDS011;66637;-29.628;-49.938;2023-01-30T00:01:58;26.27;;;4.90;;
77522;SDS011;66637;-29.628;-49.938;2023-01-30T00:04:27;20.15;;;3.92;;
77522;SDS011;66637;-29.628;-49.938;2023-01-30T00:06:58;12.27;;;2.50;;
77522;SDS011;66637;-29.628;-49.938;2023-01-30T00:09:27;12.43;;;3.22;;
77522;SDS011;66637;-29.628;-49.938;2023-01-30T00:11:58;16.40;;;3.88;;
77522;SDS011;66637;-29.628;-49.938;2023-01-30T00:14:28;10.60;;;2.33;;
77522;SDS011;66637;-29.628;-49.938;2023-01-30T00:16:57;10.50;;;2.67;;
77522;SDS011;66637;-29.628;-49.938;2023-01-30T00:19:29;10.38;;;3.30;;
77522;SDS011;66637;-29.628;-49.938;2023-01-30T00:21:59;14.35;;;3.50;;
77522;SDS011;66637;-29.628;-49.938;2023-01-30T00:24:31;11.68;;;3.70;;
77522;SDS011;66637;-29.628;-49.938;2023-01-30T00:27:01;13.68;;;3.42;;
77522;SDS011;66637;-29.628;-49.938;2023-01-30T00:33:32;13.60;;;4.22;;
77522;SDS011;66637;-29.628;-49.938;2023-01-30T00:36:04;12.40;;;2.70;;
77522;SDS011;66637;-29.628;-49.938;2023-01-30T00:38:36;13.77;;;3.70;;
77522;SDS011;66637;-29.628;-49.938;2023-01-30T00:41:07;10.70;;;3.55;;
77522;SDS011;66637;-29.628;-49.938;2023-01-30T00:43:39;16.73;;;3.72;;
77522;SDS011;66637;-29.628;-49.938;2023-01-30T00:46:30;15.00;;;3.60;;
77522;SDS011;66637;-29.628;-49.938;2023-01-30T00:49:21;9.38;;;2.47;;
77522;SDS011;66637;-29.628;-49.938;2023-01-30T00:51:52;13.02;;;2.90;;
77522;SDS011;66637;-29.628;-49.938;2023-01-30T00:54:23;7.15;;;2.35;;
77522;SDS011;66637;-29.628;-49.938;2023-01-30T00:57:04;7.85;;;3.30;;
77522;SDS011;66637;-29.628;-49.938;2023-01-30T00:59:43;10.82;;;2.90;;
77522;SDS011;66637;-29.628;-49.938;2023-01-30T01:02:17;9.15;;;2.50;;
77522;SDS011;66637;-29.628;-49.938;2023-01-30T01:04:49;8.63;;;2.30;;
77522;SDS011;66637;-29.628;-49.938;2023-01-30T01:07:18;11.55;;;2.65;;
77522;SDS011;66637;-29.628;-49.938;2023-01-30T01:09:51;6.68;;;2.05;;
77522;SDS011;66637;-29.628;-49.938;2023-01-30T01:12:21;6.22;;;2.10;;
77522;SDS011;66637;-29.628;-49.938;2023-01-30T01:14:51;7.28;;;1.73;;
77522;SDS011;66637;-29.628;-49.938;2023-01-30T01:17:21;7.45;;;2.00;;
77522;SDS011;66637;-29.628;-49.938;2023-01-30T01:19:55;4.13;;;1.58;;
77522;SDS011;66637;-29.628;-49.938;2023-01-30T01:22:25;7.45;;;1.92;;
77522;SDS011;66637;-29.628;-49.938;2023-01-30T01:24:56;4.95;;;1.90;;
77522;SDS011;66637;-29.628;-49.938;2023-01-30T01:27:27;6.03;;;2.10;;
77522;SDS011;66637;-29.628;-49.938;2023-01-30T01:30:01;6.63;;;1.63;;
77522;SDS011;66637;-29.628;-49.938;2023-01-30T01:32:32;7.88;;;1.80;;
77522;SDS011;66637;-29.628;-49.938;2023-01-30T01:35:04;8.02;;;2.10;;
77522;SDS011;66637;-29.628;-49.938;2023-01-30T01:37:35;7.50;;;1.95;;
77522;SDS011;66637;-29.628;-49.938;2023-01-30T01:40:09;5.75;;;1.58;;
77522;SDS011;66637;-29.628;-49.938;2023-01-30T01:43:16;4.60;;;1.77;;
77522;SDS011;66637;-29.628;-49.938;2023-01-30T01:45:52;3.45;;;1.58;;
77522;SDS011;66637;-29.628;-49.938;2023-01-30T01:51:13;11.00;;;1.90;;
77522;SDS011;66637;-29.628;-49.938;2023-01-30T01:53:55;7.80;;;1.83;;
77522;SDS011;66637;-29.628;-49.938;2023-01-30T01:56:47;5.85;;;1.65;;
77522;SDS011;66637;-29.628;-49.938;2023-01-30T01:59:29;6.38;;;1.60;;
77522;SDS011;66637;-29.628;-49.938;2023-01-30T02:02:06;7.57;;;2.28;;
77522;SDS011;66637;-29.628;-49.938;2023-01-30T02:04:41;9.55;;;1.85;;
77522;SDS011;66637;-29.628;-49.938;2023-01-30T02:07:39;5.57;;;1.83;;
77522;SDS011;66637;-29.628;-49.938;2023-01-30T02:10:16;6.55;;;2.03;;
77522;SDS011;66637;-29.628;-49.938;2023-01-30T02:12:55;6.90;;;2.00;;
77522;SDS011;66637;-29.628;-49.938;2023-01-30T02:15:25;6.30;;;1.95;;
77522;SDS011;66637;-29.628;-49.938;2023-01-30T02:17:56;7.88;;;2.15;;
77522;SDS011;66637;-29.628;-49.938;2023-01-30T02:20:29;6.47;;;1.77;;
77522;SDS011;66637;-29.628;-49.938;2023-01-30T02:35:49;8.13;;;1.90;;
77522;SDS011;66637;-29.628;-49.938;2023-01-30T02:44:42;4.80;;;1.75;;
77522;SDS011;66637;-29.628;-49.938;2023-01-30T02:47:41;10.10;;;2.00;;
77522;SDS011;66637;-29.628;-49.938;2023-01-30T02:50:18;6.22;;;2.00;;
77522;SDS011;66637;-29.628;-49.938;2023-01-30T02:52:56;5.93;;;1.85;;
77522;SDS011;66637;-29.628;-49.938;2023-01-30T02:55:27;6.40;;;1.90;;
77522;SDS011;66637;-29.628;-49.938;2023-01-30T02:57:58;6.43;;;2.10;;
77522;SDS011;66637;-29.628;-49.938;2023-01-30T03:00:52;13.07;;;2.40;;
77522;SDS011;66637;-29.628;-49.938;2023-01-30T03:06:41;5.53;;;1.80;;
77522;SDS011;66637;-29.628;-49.938;2023-01-30T03:09:29;7.53;;;1.38;;
77522;SDS011;66637;-29.628;-49.938;2023-01-30T03:12:06;7.20;;;1.70;;
77522;SDS011;66637;-29.628;-49.938;2023-01-30T03:17:26;6.22;;;1.77;;
77522;SDS011;66637;-29.628;-49.938;2023-01-30T03:19:58;5.30;;;2.00;;
77522;SDS011;66637;-29.628;-49.938;2023-01-30T03:22:28;10.20;;;1.83;;
77522;SDS011;66637;-29.628;-49.938;2023-01-30T03:24:58;8.05;;;1.90;;
77522;SDS011;66637;-29.628;-49.938;2023-01-30T03:27:28;8.02;;;2.20;;
77522;SDS011;66637;-29.628;-49.938;2023-01-30T03:29:58;7.88;;;2.03;;
77522;SDS011;66637;-29.628;-49.938;2023-01-30T03:32:28;7.45;;;1.85;;
77522;SDS011;66637;-29.628;-49.938;2023-01-30T03:34:59;6.28;;;1.80;;
77522;SDS011;66637;-29.628;-49.938;2023-01-30T03:37:29;10.55;;;2.03;;
77522;SDS011;66637;-29.628;-49.938;2023-01-30T03:40:00;6.63;;;1.80;;
77522;SDS011;66637;-29.628;-49.938;2023-01-30T03:42:31;4.85;;;1.70;;
77522;SDS011;66637;-29.628;-49.938;2023-01-30T03:45:02;6.63;;;2.00;;
77522;SDS011;66637;-29.628;-49.938;2023-01-30T03:47:32;7.10;;;1.98;;
77522;SDS011;66637;-29.628;-49.938;2023-01-30T03:50:02;8.82;;;1.80;;
77522;SDS011;66637;-29.628;-49.938;2023-01-30T03:52:34;7.72;;;2.20;;
77522;SDS011;66637;-29.628;-49.938;2023-01-30T03:55:09;7.07;;;1.80;;
77522;SDS011;66637;-29.628;-49.938;2023-01-30T03:57:40;5.85;;;2.03;;
77522;SDS011;66637;-29.628;-49.938;2023-01-30T04:00:09;7.57;;;1.65;;
77522;SDS011;66637;-29.628;-49.938;2023-01-30T04:02:43;7.55;;;1.90;;
77522;SDS011;66637;-29.628;-49.938;2023-01-30T04:05:16;10.15;;;2.00;;
77522;SDS011;66637;-29.628;-49.938;2023-01-30T04:07:57;6.85;;;2.10;;
77522;SDS011;66637;-29.628;-49.938;2023-01-30T04:10:27;5.35;;;1.73;;
77522;SDS011;66637;-29.628;-49.938;2023-01-30T04:12:57;6.07;;;1.58;;
77522;SDS011;66637;-29.628;-49.938;2023-01-30T04:15:28;7.90;;;1.50;;
77522;SDS011;66637;-29.628;-49.938;2023-01-30T04:18:33;7.45;;;1.75;;
77522;SDS011;66637;-29.628;-49.938;2023-01-30T04:21:11;8.70;;;1.83;;
77522;SDS011;66637;-29.628;-49.938;2023-01-30T04:23:42;6.47;;;2.15;;
77522;SDS011;66637;-29.628;-49.938;2023-01-30T04:26:11;9.52;;;2.05;;
77522;SDS011;66637;-29.628;-49.938;2023-01-30T04:28:41;8.73;;;1.80;;
77522;SDS011;66637;-29.628;-49.938;2023-01-30T04:31:14;5.90;;;1.60;;
77522;SDS011;66637;-29.628;-49.938;2023-01-30T04:34:04;6.18;;;1.70;;
77522;SDS011;66637;-29.628;-49.938;2023-01-30T04:36:34;6.05;;;1.70;;
77522;SDS011;66637;-29.628;-49.938;2023-01-30T04:39:05;11.13;;;1.98;;
77522;SDS011;66637;-29.628;-49.938;2023-01-30T04:41:35;7.97;;;1.95;;
77522;SDS011;66637;-29.628;-49.938;2023-01-30T04:44:05;7.32;;;1.98;;
77522;SDS011;66637;-29.628;-49.938;2023-01-30T04:46:58;6.43;;;1.80;;
77522;SDS011;66637;-29.628;-49.938;2023-01-30T04:49:28;6.05;;;1.80;;
77522;SDS011;66637;-29.628;-49.938;2023-01-30T04:51:59;6.88;;;1.92;;
77522;SDS011;66637;-29.628;-49.938;2023-01-30T04:54:29;10.18;;;1.73;;
77522;SDS011;66637;-29.628;-49.938;2023-01-30T04:57:00;6.78;;;1.90;;
77522;SDS011;66637;-29.628;-49.938;2023-01-30T04:59:30;7.70;;;1.95;;
77522;SDS011;66637;-29.628;-49.938;2023-01-30T05:02:04;6.65;;;1.52;;
77522;SDS011;66637;-29.628;-49.938;2023-01-30T05:04:34;4.40;;;1.42;;
77522;SDS011;66637;-29.628;-49.938;2023-01-30T05:07:04;5.32;;;1.95;;
77522;SDS011;66637;-29.628;-49.938;2023-01-30T05:09:34;7.28;;;1.95;;
77522;SDS011;66637;-29.628;-49.938;2023-01-30T05:12:03;6.68;;;1.63;;
77522;SDS011;66637;-29.628;-49.938;2023-01-30T05:14:34;5.93;;;1.65;;
77522;SDS011;66637;-29.628;-49.938;2023-01-30T05:17:03;5.35;;;1.65;;
77522;SDS011;66637;-29.628;-49.938;2023-01-30T05:19:34;6.90;;;1.73;;
77522;SDS011;66637;-29.628;-49.938;2023-01-30T05:22:04;4.30;;;1.48;;
77522;SDS011;66637;-29.628;-49.938;2023-01-30T05:24:33;6.43;;;1.85;;
77522;SDS011;66637;-29.628;-49.938;2023-01-30T05:27:04;6.70;;;1.80;;
77522;SDS011;66637;-29.628;-49.938;2023-01-30T05:29:34;4.05;;;1.70;;
77522;SDS011;66637;-29.628;-49.938;2023-01-30T05:32:04;6.13;;;1.60;;
77522;SDS011;66637;-29.628;-49.938;2023-01-30T05:34:34;6.45;;;1.50;;
77522;SDS011;66637;-29.628;-49.938;2023-01-30T05:37:04;6.20;;;2.00;;
77522;SDS011;66637;-29.628;-49.938;2023-01-30T05:39:34;8.60;;;1.90;;
77522;SDS011;66637;-29.628;-49.938;2023-01-30T05:42:04;4.85;;;1.65;;
77522;SDS011;66637;-29.628;-49.938;2023-01-30T05:44:34;8.82;;;1.95;;
77522;SDS011;66637;-29.628;-49.938;2023-01-30T05:47:04;9.38;;;1.95;;
77522;SDS011;66637;-29.628;-49.938;2023-01-30T05:49:34;10.27;;;2.17;;
77522;SDS011;66637;-29.628;-49.938;2023-01-30T05:52:04;5.43;;;1.75;;
77522;SDS011;66637;-29.628;-49.938;2023-01-30T05:54:36;12.43;;;1.80;;
77522;SDS011;66637;-29.628;-49.938;2023-01-30T05:57:06;7.15;;;1.60;;
77522;SDS011;66637;-29.628;-49.938;2023-01-30T05:59:36;3.92;;;1.77;;
77522;SDS011;66637;-29.628;-49.938;2023-01-30T06:02:06;6.95;;;1.73;;
77522;SDS011;66637;-29.628;-49.938;2023-01-30T06:04:38;5.07;;;1.73;;
77522;SDS011;66637;-29.628;-49.938;2023-01-30T06:07:08;6.00;;;1.90;;
77522;SDS011;66637;-29.628;-49.938;2023-01-30T06:09:38;8.65;;;2.35;;
77522;SDS011;66637;-29.628;-49.938;2023-01-30T06:12:08;10.00;;;2.38;;
77522;SDS011;66637;-29.628;-49.938;2023-01-30T06:14:38;6.63;;;1.70;;
77522;SDS011;66637;-29.628;-49.938;2023-01-30T06:17:08;9.20;;;2.10;;
77522;SDS011;66637;-29.628;-49.938;2023-01-30T06:19:38;9.63;;;1.88;;
77522;SDS011;66637;-29.628;-49.938;2023-01-30T06:22:08;5.50;;;1.70;;
77522;SDS011;66637;-29.628;-49.938;2023-01-30T06:24:38;7.47;;;1.92;;
77522;SDS011;66637;-29.628;-49.938;2023-01-30T06:27:08;6.28;;;1.77;;
77522;SDS011;66637;-29.628;-49.938;2023-01-30T06:29:38;3.08;;;1.38;;
77522;SDS011;66637;-29.628;-49.938;2023-01-30T06:32:08;5.10;;;1.40;;
77522;SDS011;66637;-29.628;-49.938;2023-01-30T06:34:38;5.00;;;1.52;;
77522;SDS011;66637;-29.628;-49.938;2023-01-30T06:37:08;3.33;;;1.35;;
77522;SDS011;66637;-29.628;-49.938;2023-01-30T06:39:38;4.75;;;1.70;;
77522;SDS011;66637;-29.628;-49.938;2023-01-30T06:42:08;4.57;;;1.73;;
77522;SDS011;66637;-29.628;-49.938;2023-01-30T06:44:38;5.97;;;1.80;;
77522;SDS011;66637;-29.628;-49.938;2023-01-30T06:47:08;4.82;;;1.48;;
77522;SDS011;66637;-29.628;-49.938;2023-01-30T06:49:38;9.57;;;2.22;;
77522;SDS011;66637;-29.628;-49.938;2023-01-30T06:52:09;6.22;;;1.20;;
77522;SDS011;66637;-29.628;-49.938;2023-01-30T06:54:39;4.93;;;1.40;;
77522;SDS011;66637;-29.628;-49.938;2023-01-30T06:57:09;7.93;;;1.85;;
77522;SDS011;66637;-29.628;-49.938;2023-01-30T06:59:40;6.57;;;1.83;;
77522;SDS011;66637;-29.628;-49.938;2023-01-30T07:02:11;6.97;;;1.70;;
77522;SDS011;66637;-29.628;-49.938;2023-01-30T07:04:42;7.20;;;1.90;;
77522;SDS011;66637;-29.628;-49.938;2023-01-30T07:07:12;8.85;;;1.80;;
77522;SDS011;66637;-29.628;-49.938;2023-01-30T07:09:41;4.93;;;1.52;;
77522;SDS011;66637;-29.628;-49.938;2023-01-30T07:12:17;6.93;;;1.60;;
77522;SDS011;66637;-29.628;-49.938;2023-01-30T07:14:47;5.97;;;1.67;;
77522;SDS011;66637;-29.628;-49.938;2023-01-30T07:17:18;7.32;;;1.80;;
77522;SDS011;66637;-29.628;-49.938;2023-01-30T07:19:48;7.43;;;1.73;;
77522;SDS011;66637;-29.628;-49.938;2023-01-30T07:22:18;8.18;;;1.60;;
77522;SDS011;66637;-29.628;-49.938;2023-01-30T07:24:48;7.65;;;1.45;;
77522;SDS011;66637;-29.628;-49.938;2023-01-30T07:27:18;6.15;;;1.30;;
77522;SDS011;66637;-29.628;-49.938;2023-01-30T07:29:48;7.97;;;1.63;;
77522;SDS011;66637;-29.628;-49.938;2023-01-30T07:32:20;5.57;;;1.65;;
77522;SDS011;66637;-29.628;-49.938;2023-01-30T07:34:50;6.43;;;1.63;;
77522;SDS011;66637;-29.628;-49.938;2023-01-30T07:37:20;6.15;;;1.90;;
77522;SDS011;66637;-29.628;-49.938;2023-01-30T07:39:50;7.95;;;1.80;;
77522;SDS011;66637;-29.628;-49.938;2023-01-30T07:42:20;5.03;;;1.35;;
77522;SDS011;66637;-29.628;-49.938;2023-01-30T07:44:51;5.43;;;1.92;;
77522;SDS011;66637;-29.628;-49.938;2023-01-30T07:47:21;5.00;;;1.58;;
77522;SDS011;66637;-29.628;-49.938;2023-01-30T07:49:52;6.72;;;2.15;;
77522;SDS011;66637;-29.628;-49.938;2023-01-30T07:52:22;5.40;;;1.70;;
77522;SDS011;66637;-29.628;-49.938;2023-01-30T07:54:52;6.18;;;1.50;;
77522;SDS011;66637;-29.628;-49.938;2023-01-30T07:57:22;5.70;;;1.70;;
77522;SDS011;66637;-29.628;-49.938;2023-01-30T07:59:52;7.72;;;1.60;;
77522;SDS011;66637;-29.628;-49.938;2023-01-30T08:02:22;6.03;;;1.60;;
77522;SDS011;66637;-29.628;-49.938;2023-01-30T08:04:52;4.90;;;1.50;;
77522;SDS011;66637;-29.628;-49.938;2023-01-30T08:07:22;8.38;;;1.60;;
77522;SDS011;66637;-29.628;-49.938;2023-01-30T08:09:51;4.55;;;1.70;;
77522;SDS011;66637;-29.628;-49.938;2023-01-30T08:12:22;5.25;;;1.55;;
77522;SDS011;66637;-29.628;-49.938;2023-01-30T08:14:51;7.47;;;1.80;;
77522;SDS011;66637;-29.628;-49.938;2023-01-30T08:17:21;4.07;;;1.52;;
77522;SDS011;66637;-29.628;-49.938;2023-01-30T08:19:51;6.28;;;1.88;;
77522;SDS011;66637;-29.628;-49.938;2023-01-30T08:22:22;6.35;;;1.67;;
77522;SDS011;66637;-29.628;-49.938;2023-01-30T08:24:52;8.00;;;1.92;;
77522;SDS011;66637;-29.628;-49.938;2023-01-30T08:27:22;7.78;;;1.90;;
77522;SDS011;66637;-29.628;-49.938;2023-01-30T08:29:51;7.50;;;1.60;;
77522;SDS011;66637;-29.628;-49.938;2023-01-30T08:32:22;10.35;;;1.77;;
77522;SDS011;66637;-29.628;-49.938;2023-01-30T08:34:51;10.77;;;1.88;;
77522;SDS011;66637;-29.628;-49.938;2023-01-30T08:37:21;5.55;;;1.50;;
77522;SDS011;66637;-29.628;-49.938;2023-01-30T08:39:51;7.30;;;1.75;;
77522;SDS011;66637;-29.628;-49.938;2023-01-30T08:42:21;7.97;;;1.90;;
77522;SDS011;66637;-29.628;-49.938;2023-01-30T08:44:51;5.53;;;1.75;;
77522;SDS011;66637;-29.628;-49.938;2023-01-30T08:47:21;6.38;;;1.30;;
77522;SDS011;66637;-29.628;-49.938;2023-01-30T08:49:51;6.65;;;1.92;;
77522;SDS011;66637;-29.628;-49.938;2023-01-30T08:52:21;4.97;;;1.73;;
77522;SDS011;66637;-29.628;-49.938;2023-01-30T08:54:51;9.55;;;2.35;;
77522;SDS011;66637;-29.628;-49.938;2023-01-30T08:57:21;6.47;;;2.08;;
77522;SDS011;66637;-29.628;-49.938;2023-01-30T08:59:51;7.65;;;1.73;;
77522;SDS011;66637;-29.628;-49.938;2023-01-30T09:02:21;4.50;;;1.63;;
77522;SDS011;66637;-29.628;-49.938;2023-01-30T09:04:52;6.65;;;1.80;;
77522;SDS011;66637;-29.628;-49.938;2023-01-30T09:07:22;10.73;;;2.55;;
77522;SDS011;66637;-29.628;-49.938;2023-01-30T09:09:51;5.85;;;1.80;;
77522;SDS011;66637;-29.628;-49.938;2023-01-30T09:12:22;9.30;;;1.83;;
77522;SDS011;66637;-29.628;-49.938;2023-01-30T09:14:52;6.72;;;1.85;;
77522;SDS011;66637;-29.628;-49.938;2023-01-30T09:17:23;5.35;;;1.50;;
77522;SDS011;66637;-29.628;-49.938;2023-01-30T09:19:53;5.70;;;1.90;;
77522;SDS011;66637;-29.628;-49.938;2023-01-30T09:22:23;8.48;;;1.75;;
77522;SDS011;66637;-29.628;-49.938;2023-01-30T09:24:56;8.55;;;1.80;;
77522;SDS011;66637;-29.628;-49.938;2023-01-30T09:27:26;5.90;;;1.48;;
77522;SDS011;66637;-29.628;-49.938;2023-01-30T09:29:56;7.03;;;1.55;;
77522;SDS011;66637;-29.628;-49.938;2023-01-30T09:32:26;5.72;;;1.77;;
77522;SDS011;66637;-29.628;-49.938;2023-01-30T09:34:56;6.18;;;1.63;;
77522;SDS011;66637;-29.628;-49.938;2023-01-30T09:37:26;6.95;;;1.67;;
77522;SDS011;66637;-29.628;-49.938;2023-01-30T09:39:56;6.38;;;1.83;;
77522;SDS011;66637;-29.628;-49.938;2023-01-30T09:42:42;4.20;;;1.50;;
77522;SDS011;66637;-29.628;-49.938;2023-01-30T09:45:36;6.05;;;1.67;;
77522;SDS011;66637;-29.628;-49.938;2023-01-30T09:54:14;6.45;;;1.98;;
77522;SDS011;66637;-29.628;-49.938;2023-01-30T09:56:57;4.03;;;1.50;;
77522;SDS011;66637;-29.628;-49.938;2023-01-30T10:05:19;4.00;;;1.52;;
77522;SDS011;66637;-29.628;-49.938;2023-01-30T10:13:24;8.40;;;2.08;;
77522;SDS011;66637;-29.628;-49.938;2023-01-30T10:19:18;7.13;;;1.45;;
77522;SDS011;66637;-29.628;-49.938;2023-01-30T10:22:07;8.13;;;1.52;;
77522;SDS011;66637;-29.628;-49.938;2023-01-30T10:30:33;7.25;;;1.67;;
77522;SDS011;66637;-29.628;-49.938;2023-01-30T10:33:23;5.43;;;1.20;;
77522;SDS011;66637;-29.628;-49.938;2023-01-30T10:36:10;5.70;;;1.17;;
77522;SDS011;66637;-29.628;-49.938;2023-01-30T10:38:48;5.97;;;1.45;;
77522;SDS011;66637;-29.628;-49.938;2023-01-30T10:44:09;4.97;;;1.33;;
77522;SDS011;66637;-29.628;-49.938;2023-01-30T10:47:01;5.80;;;1.40;;
77522;SDS011;66637;-29.628;-49.938;2023-01-30T10:52:53;3.30;;;1.05;;
77522;SDS011;66637;-29.628;-49.938;2023-01-30T10:55:44;5.20;;;1.50;;
77522;SDS011;66637;-29.628;-49.938;2023-01-30T10:58:27;5.63;;;1.10;;
77522;SDS011;66637;-29.628;-49.938;2023-01-30T11:01:25;5.43;;;1.10;;
77522;SDS011;66637;-29.628;-49.938;2023-01-30T11:04:06;6.07;;;1.10;;
77522;SDS011;66637;-29.628;-49.938;2023-01-30T11:06:47;6.53;;;1.10;;
77522;SDS011;66637;-29.628;-49.938;2023-01-30T11:09:19;8.13;;;1.10;;
77522;SDS011;66637;-29.628;-49.938;2023-01-30T11:11:52;6.22;;;1.00;;
77522;SDS011;66637;-29.628;-49.938;2023-01-30T11:14:24;3.45;;;1.08;;
77522;SDS011;66637;-29.628;-49.938;2023-01-30T11:16:55;6.15;;;0.93;;
77522;SDS011;66637;-29.628;-49.938;2023-01-30T11:19:33;5.32;;;0.95;;
77522;SDS011;66637;-29.628;-49.938;2023-01-30T11:22:06;4.38;;;1.10;;
77522;SDS011;66637;-29.628;-49.938;2023-01-30T11:24:43;7.97;;;1.27;;
77522;SDS011;66637;-29.628;-49.938;2023-01-30T11:27:18;5.13;;;0.80;;
77522;SDS011;66637;-29.628;-49.938;2023-01-30T11:30:04;5.75;;;0.98;;
77522;SDS011;66637;-29.628;-49.938;2023-01-30T11:32:44;6.72;;;1.20;;
77522;SDS011;66637;-29.628;-49.938;2023-01-30T11:35:22;4.70;;;0.80;;
77522;SDS011;66637;-29.628;-49.938;2023-01-30T11:38:10;5.88;;;1.00;;
77522;SDS011;66637;-29.628;-49.938;2023-01-30T11:40:48;15.85;;;2.50;;
77522;SDS011;66637;-29.628;-49.938;2023-01-30T11:43:19;17.17;;;2.20;;
77522;SDS011;66637;-29.628;-49.938;2023-01-30T11:45:55;17.63;;;2.33;;
77522;SDS011;66637;-29.628;-49.938;2023-01-30T11:48:26;14.85;;;2.30;;
77522;SDS011;66637;-29.628;-49.938;2023-01-30T11:51:19;14.70;;;2.08;;
77522;SDS011;66637;-29.628;-49.938;2023-01-30T11:53:56;6.10;;;1.40;;
77522;SDS011;66637;-29.628;-49.938;2023-01-30T11:56:34;6.00;;;1.33;;
77522;SDS011;66637;-29.628;-49.938;2023-01-30T11:59:23;10.68;;;1.77;;
77522;SDS011;66637;-29.628;-49.938;2023-01-30T12:02:15;19.95;;;2.75;;
77522;SDS011;66637;-29.628;-49.938;2023-01-30T12:04:54;11.20;;;1.83;;
77522;SDS011;66637;-29.628;-49.938;2023-01-30T12:07:29;19.40;;;2.80;;
77522;SDS011;66637;-29.628;-49.938;2023-01-30T12:10:16;26.30;;;3.50;;
77522;SDS011;66637;-29.628;-49.938;2023-01-30T12:12:59;15.68;;;2.33;;
77522;SDS011;66637;-29.628;-49.938;2023-01-30T12:15:38;16.40;;;2.58;;
77522;SDS011;66637;-29.628;-49.938;2023-01-30T12:18:18;12.00;;;2.10;;
77522;SDS011;66637;-29.628;-49.938;2023-01-30T12:20:58;19.08;;;2.65;;
77522;SDS011;66637;-29.628;-49.938;2023-01-30T12:23:55;13.57;;;2.85;;
77522;SDS011;66637;-29.628;-49.938;2023-01-30T12:26:51;17.90;;;2.47;;
77522;SDS011;66637;-29.628;-49.938;2023-01-30T12:29:53;15.38;;;2.40;;
77522;SDS011;66637;-29.628;-49.938;2023-01-30T12:32:33;23.17;;;2.83;;
77522;SDS011;66637;-29.628;-49.938;2023-01-30T12:35:12;21.77;;;2.85;;
77522;SDS011;66637;-29.628;-49.938;2023-01-30T12:52:29;14.52;;;2.05;;
77522;SDS011;66637;-29.628;-49.938;2023-01-30T12:55:27;23.05;;;2.67;;
77522;SDS011;66637;-29.628;-49.938;2023-01-30T13:00:32;16.13;;;2.22;;
77522;SDS011;66637;-29.628;-49.938;2023-01-30T13:06:23;15.55;;;2.13;;
77522;SDS011;66637;-29.628;-49.938;2023-01-30T13:14:50;41.58;;;5.65;;
77522;SDS011;66637;-29.628;-49.938;2023-01-30T13:23:19;16.92;;;1.92;;
77522;SDS011;66637;-29.628;-49.938;2023-01-30T13:26:10;24.98;;;2.33;;
77522;SDS011;66637;-29.628;-49.938;2023-01-30T13:29:00;15.38;;;1.77;;
77522;SDS011;66637;-29.628;-49.938;2023-01-30T13:31:43;15.55;;;2.42;;
77522;SDS011;66637;-29.628;-49.938;2023-01-30T13:37:11;20.45;;;2.22;;
77522;SDS011;66637;-29.628;-49.938;2023-01-30T13:39:56;17.52;;;2.13;;
77522;SDS011;66637;-29.628;-49.938;2023-01-30T13:42:42;17.88;;;2.40;;
77522;SDS011;66637;-29.628;-49.938;2023-01-30T13:45:22;15.77;;;1.73;;
77522;SDS011;66637;-29.628;-49.938;2023-01-30T13:53:53;17.60;;;1.80;;
77522;SDS011;66637;-29.628;-49.938;2023-01-30T13:56:43;14.32;;;1.80;;
77522;SDS011;66637;-29.628;-49.938;2023-01-30T14:02:22;15.38;;;2.33;;
77522;SDS011;66637;-29.628;-49.938;2023-01-30T14:12:41;15.73;;;1.77;;
77522;SDS011;66637;-29.628;-49.938;2023-01-30T14:20:31;17.38;;;1.85;;
77522;SDS011;66637;-29.628;-49.938;2023-01-30T14:23:05;14.40;;;1.50;;
77522;SDS011;66637;-29.628;-49.938;2023-01-30T14:25:58;10.98;;;1.40;;
77522;SDS011;66637;-29.628;-49.938;2023-01-30T14:30:59;21.88;;;2.88;;
77522;SDS011;66637;-29.628;-49.938;2023-01-30T14:33:34;23.13;;;2.67;;
77522;SDS011;66637;-29.628;-49.938;2023-01-30T14:39:34;22.85;;;2.83;;
77522;SDS011;66637;-29.628;-49.938;2023-01-30T14:42:19;18.00;;;1.92;;
77522;SDS011;66637;-29.628;-49.938;2023-01-30T14:47:34;15.30;;;1.58;;
77522;SDS011;66637;-29.628;-49.938;2023-01-30T14:50:18;13.95;;;1.70;;
77522;SDS011;66637;-29.628;-49.938;2023-01-30T14:52:53;15.52;;;2.08;;
77522;SDS011;66637;-29.628;-49.938;2023-01-30T14:55:26;13.32;;;1.77;;
77522;SDS011;66637;-29.628;-49.938;2023-01-30T14:58:00;19.73;;;2.83;;
77522;SDS011;66637;-29.628;-49.938;2023-01-30T15:00:33;14.05;;;1.55;;
77522;SDS011;66637;-29.628;-49.938;2023-01-30T15:03:15;17.15;;;1.92;;
77522;SDS011;66637;-29.628;-49.938;2023-01-30T15:05:48;24.33;;;3.97;;
77522;SDS011;66637;-29.628;-49.938;2023-01-30T15:08:22;18.48;;;4.38;;
77522;SDS011;66637;-29.628;-49.938;2023-01-30T15:13:47;12.07;;;2.97;;
77522;SDS011;66637;-29.628;-49.938;2023-01-30T15:27:32;18.55;;;5.10;;
77522;SDS011;66637;-29.628;-49.938;2023-01-30T15:33:29;19.95;;;4.03;;
77522;SDS011;66637;-29.628;-49.938;2023-01-30T15:35:59;18.17;;;3.55;;
77522;SDS011;66637;-29.628;-49.938;2023-01-30T15:38:56;18.80;;;3.20;;
77522;SDS011;66637;-29.628;-49.938;2023-01-30T15:44:19;15.80;;;2.50;;
77522;SDS011;66637;-29.628;-49.938;2023-01-30T15:47:02;16.55;;;2.17;;
77522;SDS011;66637;-29.628;-49.938;2023-01-30T15:49:56;20.25;;;2.03;;
77522;SDS011;66637;-29.628;-49.938;2023-01-30T15:55:21;20.60;;;2.78;;
77522;SDS011;66637;-29.628;-49.938;2023-01-30T15:57:54;20.45;;;2.40;;
77522;SDS011;66637;-29.628;-49.938;2023-01-30T16:00:33;14.82;;;2.50;;
77522;SDS011;66637;-29.628;-49.938;2023-01-30T16:03:09;17.95;;;2.08;;
77522;SDS011;66637;-29.628;-49.938;2023-01-30T16:05:48;25.27;;;3.05;;
77522;SDS011;66637;-29.628;-49.938;2023-01-30T16:08:27;14.68;;;2.63;;
77522;SDS011;66637;-29.628;-49.938;2023-01-30T16:10:58;19.70;;;3.40;;
77522;SDS011;66637;-29.628;-49.938;2023-01-30T16:13:28;19.65;;;4.18;;
77522;SDS011;66637;-29.628;-49.938;2023-01-30T16:16:08;21.60;;;3.10;;
77522;SDS011;66637;-29.628;-49.938;2023-01-30T16:18:48;22.00;;;2.90;;
77522;SDS011;66637;-29.628;-49.938;2023-01-30T16:21:30;17.42;;;2.40;;
77522;SDS011;66637;-29.628;-49.938;2023-01-30T16:26:56;22.25;;;3.03;;
77522;SDS011;66637;-29.628;-49.938;2023-01-30T16:29:31;16.25;;;1.83;;
77522;SDS011;66637;-29.628;-49.938;2023-01-30T16:32:22;16.85;;;2.20;;
77522;SDS011;66637;-29.628;-49.938;2023-01-30T16:37:56;13.98;;;2.40;;
77522;SDS011;66637;-29.628;-49.938;2023-01-30T16:40:29;15.27;;;2.42;;
77522;SDS011;66637;-29.628;-49.938;2023-01-30T16:43:23;16.85;;;2.15;;
77522;SDS011;66637;-29.628;-49.938;2023-01-30T16:48:32;19.33;;;2.35;;
77522;SDS011;66637;-29.628;-49.938;2023-01-30T16:53:49;13.60;;;1.90;;
77522;SDS011;66637;-29.628;-49.938;2023-01-30T16:56:26;20.00;;;2.30;;
77522;SDS011;66637;-29.628;-49.938;2023-01-30T16:58:58;21.30;;;2.72;;
77522;SDS011;66637;-29.628;-49.938;2023-01-30T17:01:34;16.63;;;2.42;;
77522;SDS011;66637;-29.628;-49.938;2023-01-30T17:04:07;19.00;;;2.72;;
77522;SDS011;66637;-29.628;-49.938;2023-01-30T17:06:51;14.75;;;2.10;;
77522;SDS011;66637;-29.628;-49.938;2023-01-30T17:15:32;22.50;;;3.83;;
77522;SDS011;66637;-29.628;-49.938;2023-01-30T17:17:56;20.80;;;2.88;;
77522;SDS011;66637;-29.628;-49.938;2023-01-30T17:20:29;17.42;;;2.15;;
77522;SDS011;66637;-29.628;-49.938;2023-01-30T17:23:07;15.13;;;2.60;;
77522;SDS011;66637;-29.628;-49.938;2023-01-30T17:25:40;21.92;;;2.95;;
77522;SDS011;66637;-29.628;-49.938;2023-01-30T17:28:16;17.77;;;2.42;;
77522;SDS011;66637;-29.628;-49.938;2023-01-30T17:30:49;16.52;;;2.65;;
77522;SDS011;66637;-29.628;-49.938;2023-01-30T17:33:19;17.77;;;2.42;;
77522;SDS011;66637;-29.628;-49.938;2023-01-30T17:35:49;14.05;;;1.90;;
77522;SDS011;66637;-29.628;-49.938;2023-01-30T17:38:19;17.65;;;2.88;;